This is the latest recevied weather packets stored in our database for station/object DK4EP-10. If no packets are shown the sender has not sent any weather packets the latest 1 day(s).
| Time | Temp. | Humidity | Pressure | Rain* | Wind** | Luminosity | Snow |
|---|---|---|---|---|---|---|---|
| 1777792106 | 25° C | 41% | 992 hPa | - | - | - | - |
| 1777791204 | 24.44° C | 39% | 992 hPa | - | - | - | - |
| 1777790303 | 23.89° C | 39% | 992 hPa | - | - | - | - |
| 1777789402 | 23.33° C | 42% | 992 hPa | - | - | - | - |
| 1777788501 | 23.33° C | 40% | 992 hPa | - | - | - | - |
| 1777787600 | 22.22° C | 41% | 992 hPa | - | - | - | - |
| 1777786698 | 20.56° C | 43% | 992 hPa | - | - | - | - |
| 1777785797 | 19.44° C | 45% | 992 hPa | - | - | - | - |
| 1777784896 | 18.89° C | 46% | 992 hPa | - | - | - | - |
| 1777783995 | 16.11° C | 49% | 992 hPa | - | - | - | - |
| 1777783094 | 15.56° C | 50% | 992 hPa | - | - | - | - |
| 1777782193 | 15.56° C | 51% | 992 hPa | - | - | - | - |
| 1777781291 | 15° C | 50% | 992 hPa | - | - | - | - |
| 1777780390 | 15° C | 51% | 992 hPa | - | - | - | - |
| 1777779489 | 15° C | 51% | 992 hPa | - | - | - | - |
| 1777778588 | 15° C | 51% | 992 hPa | - | - | - | - |
| 1777777687 | 15° C | 51% | 992 hPa | - | - | - | - |
| 1777776786 | 15° C | 52% | 992 hPa | - | - | - | - |
| 1777775884 | 15.56° C | 50% | 992 hPa | - | - | - | - |
| 1777774983 | 16.11° C | 49% | 992 hPa | - | - | - | - |
| 1777774081 | 16.11° C | 49% | 992 hPa | - | - | - | - |
| 1777773180 | 16.67° C | 49% | 992 hPa | - | - | - | - |
| 1777772279 | 16.11° C | 49% | 992 hPa | - | - | - | - |
| 1777771377 | 16.67° C | 49% | 992 hPa | - | - | - | - |
| 1777770476 | 16.11° C | 49% | 992 hPa | - | - | - | - |
* Rain since midnight (hover to see other rain measurements)
** Current wind speed in m/s (hover to see current wind gust speed)